Time;durP1;ratioP1;P1;durP2;ratioP2;P2;SDS_P1;SDS_P2;PMS_P1;PMS_P2;Temp;Humidity;BMP_temperature;BMP_pressure;BME280_temperature;BME280_humidity;BME280_pressure;Samples;Min_cycle;Max_cycle;Signal;HPM_P1;HPM_P2
2023/01/09 00:01:49;;;;;;;7.15;4.32;;;10.10;73.20;;;5.43;100.00;94087.50;4991156;28;20029;-51
2023/01/09 00:04:15;;;;;;;5.07;3.55;;;10.00;73.20;;;5.43;100.00;94075.06;4995545;28;20017;-52
2023/01/09 00:06:42;;;;;;;4.55;3.35;;;10.00;73.20;;;5.43;100.00;94066.38;4956824;28;20420;-48
2023/01/09 00:09:11;;;;;;;5.65;3.15;;;10.00;73.20;;;5.43;100.00;94064.50;4960054;28;20050;-52
2023/01/09 00:11:37;;;;;;;3.95;3.13;;;10.00;73.20;;;5.46;100.00;94076.41;4971177;28;20061;-55
2023/01/09 00:14:12;;;;;;;4.72;3.60;;;10.10;73.30;;;5.45;100.00;94074.78;4979366;28;20053;-50
2023/01/09 00:16:40;;;;;;;5.35;3.78;;;10.10;73.30;;;5.47;100.00;94075.31;4974008;28;20022;-53
2023/01/09 00:19:06;;;;;;;5.13;3.60;;;10.10;73.30;;;5.45;100.00;94067.69;4965879;28;20022;-50
2023/01/09 00:21:32;;;;;;;6.72;4.32;;;10.10;73.30;;;5.45;100.00;94078.25;4985740;28;20037;-51
2023/01/09 00:24:01;;;;;;;7.53;4.90;;;10.10;73.30;;;5.42;100.00;94072.69;4971885;28;20027;-52
2023/01/09 00:26:34;;;;;;;7.68;5.07;;;10.10;74.00;;;5.42;100.00;94072.69;4975807;28;20025;-52
2023/01/09 00:29:00;;;;;;;;;;;10.10;73.30;;;5.44;100.00;94067.94;4976223;28;20045;-51
2023/01/09 00:31:29;;;;;;;8.70;4.97;;;10.00;73.00;;;5.39;100.00;94075.88;4989257;28;20361;-49
2023/01/09 00:34:04;;;;;;;7.15;4.28;;;10.00;73.20;;;5.39;100.00;94078.50;4962982;28;20441;-53
2023/01/09 00:36:31;;;;;;;6.80;4.95;;;10.10;73.30;;;5.34;100.00;94074.84;4973068;28;20431;-51
2023/01/09 00:39:00;;;;;;;6.25;4.20;;;10.00;73.20;;;5.42;100.00;94065.59;4985344;28;20037;-49
2023/01/09 00:41:38;;;;;;;6.95;5.15;;;10.00;73.20;;;5.45;100.00;94070.31;4968373;28;20025;-49
2023/01/09 00:44:24;;;;;;;7.25;4.60;;;10.00;73.30;;;5.44;100.00;94067.94;4982073;28;20031;-49
2023/01/09 00:47:23;;;;;;;8.20;4.47;;;10.00;73.30;;;5.41;100.00;94071.91;4953080;28;20173;-49
2023/01/09 00:49:57;;;;;;;6.63;4.45;;;10.10;73.30;;;5.41;100.00;94077.19;4988192;28;20022;-52
2023/01/09 00:52:31;;;;;;;6.18;4.30;;;10.00;73.30;;;5.44;100.00;94075.88;4965251;28;20099;-50
2023/01/09 00:54:59;;;;;;;8.23;4.57;;;10.00;73.30;;;5.43;100.00;94069.00;4968211;28;20427;-57
2023/01/09 00:57:25;;;;;;;10.30;4.90;;;10.10;73.30;;;5.43;100.00;94064.50;4972330;28;20029;-53
2023/01/09 00:59:52;;;;;;;8.30;4.32;;;10.10;73.20;;;5.39;100.00;94052.91;4934889;28;20445;-53
2023/01/09 01:02:20;;;;;;;7.47;4.05;;;10.10;74.00;;;5.39;100.00;94046.81;4960466;28;20037;-50
2023/01/09 01:07:37;;;;;;;4.50;2.78;;;10.10;73.30;;;5.41;100.00;94053.41;4979660;28;20041;-50
2023/01/09 01:10:19;;;;;;;6.13;2.50;;;10.00;73.30;;;5.41;100.00;94061.34;4969053;28;20559;-51
2023/01/09 01:12:48;;;;;;;4.50;1.77;;;10.00;73.40;;;5.38;100.00;94059.25;4970009;28;20045;-53
2023/01/09 01:15:16;;;;;;;1.55;1.20;;;10.00;73.50;;;5.43;100.00;94063.72;4975148;28;20039;-52
2023/01/09 01:17:45;;;;;;;1.25;1.00;;;10.00;73.50;;;5.46;100.00;94076.41;4976782;28;20510;-52
2023/01/09 01:20:18;;;;;;;1.40;0.90;;;10.00;73.60;;;5.48;100.00;94082.97;5008534;28;20049;-54
2023/01/09 01:22:44;;;;;;;1.35;0.93;;;10.00;73.70;;;5.52;100.00;94080.59;4998035;28;20117;-50
2023/01/09 01:25:16;;;;;;;1.00;0.80;;;10.00;73.80;;;5.54;100.00;94076.63;4969723;28;20104;-50
2023/01/09 01:27:44;;;;;;;1.05;0.80;;;10.10;73.80;;;5.52;100.00;94072.69;4972009;28;20152;-50
2023/01/09 01:30:14;;;;;;;1.00;0.90;;;10.10;73.80;;;5.55;100.00;94072.16;4979914;28;20025;-50
2023/01/09 01:32:43;;;;;;;1.10;0.70;;;10.00;73.80;;;5.53;100.00;94071.63;5007974;28;20029;-50
2023/01/09 01:35:10;;;;;;;2.60;0.85;;;10.10;73.80;;;5.55;100.00;94078.22;4965875;28;20017;-50
2023/01/09 01:37:39;;;;;;;2.33;1.05;;;10.10;73.80;;;5.62;100.00;94077.13;4990793;28;20162;-52
2023/01/09 01:40:10;;;;;;;1.00;0.75;;;10.10;73.80;;;5.59;100.00;94075.03;4979465;28;20448;-54
2023/01/09 01:42:50;;;;;;;0.95;0.80;;;10.10;73.80;;;5.56;100.00;94082.44;4975181;28;20029;-52
2023/01/09 01:45:28;;;;;;;1.08;0.80;;;10.10;73.80;;;5.60;100.00;94092.47;5008248;28;20492;-50
2023/01/09 01:48:28;;;;;;;1.35;0.82;;;10.10;73.80;;;5.61;100.00;94094.84;4987851;28;20064;-50
2023/01/09 01:51:07;;;;;;;1.45;1.10;;;10.10;73.80;;;5.61;100.00;94110.69;4965716;28;20431;-50
2023/01/09 01:53:52;;;;;;;0.93;0.70;;;10.10;73.80;;;5.56;100.00;94100.91;4980794;28;20030;-51
2023/01/09 01:56:36;;;;;;;0.50;0.47;;;10.10;73.90;;;5.53;100.00;94114.66;4952647;28;20563;-55
2023/01/09 01:59:51;;;;;;;0.60;0.50;;;10.10;73.90;;;5.58;100.00;94111.22;4974427;28;20076;-51
2023/01/09 02:02:26;;;;;;;0.40;0.40;;;10.10;73.90;;;5.53;100.00;94112.03;4983410;28;20032;-51
2023/01/09 02:04:57;;;;;;;4.72;0.68;;;10.00;73.90;;;5.54;100.00;94110.16;4980392;28;20033;-55
2023/01/09 02:07:23;;;;;;;1.90;0.60;;;10.00;74.00;;;5.51;100.00;94105.41;4990610;28;20466;-50
2023/01/09 02:09:51;;;;;;;1.83;0.70;;;10.00;73.90;;;5.46;100.00;94108.09;5006110;28;22554;-52
2023/01/09 02:12:25;;;;;;;0.70;0.60;;;10.00;73.90;;;5.45;100.00;94101.22;4993026;28;20116;-50
2023/01/09 02:15:14;;;;;;;2.38;0.60;;;10.00;74.00;;;5.45;100.00;94106.50;4990930;28;20036;-53
2023/01/09 02:18:46;;;;;;;0.40;0.40;;;10.00;73.90;;;5.31;100.00;94098.34;4980931;28;20037;-54
2023/01/09 02:21:36;;;;;;;0.52;0.43;;;9.90;73.70;;;5.29;100.00;94109.16;4952662;28;20041;-51
2023/01/09 02:24:12;;;;;;;1.15;0.60;;;9.90;73.80;;;5.31;100.00;94119.47;4976142;28;20113;-51
2023/01/09 02:27:31;;;;;;;1.20;0.52;;;9.80;73.80;;;5.33;100.00;94128.72;4969152;28;20017;-57
2023/01/09 02:30:47;;;;;;;2.90;0.75;;;9.80;73.90;;;5.25;100.00;94147.72;4956374;28;20108;-50
2023/01/09 02:33:52;;;;;;;0.70;0.70;;;9.70;73.90;;;5.25;100.00;94154.84;4970095;28;20037;-53
2023/01/09 02:37:03;;;;;;;0.70;0.60;;;9.70;74.00;;;5.22;100.00;94150.09;4973263;28;20052;-51
2023/01/09 02:39:48;;;;;;;1.30;0.90;;;9.70;74.00;;;5.19;100.00;94140.06;5008087;28;20084;-54
2023/01/09 02:42:22;;;;;;;1.77;0.70;;;9.60;74.00;;;5.22;100.00;94155.38;4970171;28;20044;-52
2023/01/09 02:44:50;;;;;;;1.83;0.80;;;9.60;74.00;;;5.17;100.00;94155.38;4990835;28;20098;-52
2023/01/09 02:47:19;;;;;;;4.40;1.08;;;9.70;74.10;;;5.19;100.00;94156.69;4959972;28;20026;-52
2023/01/09 02:50:01;;;;;;;0.80;0.75;;;9.70;74.10;;;5.20;100.00;94165.41;4972344;28;20577;-51
2023/01/09 02:53:27;;;;;;;4.18;1.10;;;9.70;74.10;;;5.13;100.00;94163.03;4972578;28;20419;-51
2023/01/09 02:56:34;;;;;;;5.45;1.15;;;9.70;74.00;;;5.07;100.00;94172.00;4993923;28;20041;-50
2023/01/09 02:59:24;;;;;;;1.60;1.20;;;9.60;74.00;;;5.06;100.00;94186.28;4983424;28;20048;-56
2023/01/09 03:02:33;;;;;;;0.75;0.68;;;9.60;74.10;;;4.97;100.00;94187.84;4985481;28;20533;-52
2023/01/09 03:05:20;;;;;;;0.85;0.55;;;9.60;74.00;;;4.88;100.00;94204.19;4967521;28;20040;-55
2023/01/09 03:08:15;;;;;;;0.55;0.45;;;9.60;74.10;;;4.77;100.00;94215.78;4993849;28;20471;-54
2023/01/09 03:11:03;;;;;;;1.95;0.40;;;9.50;74.00;;;4.67;100.00;94228.16;4939813;28;20046;-52
2023/01/09 03:13:56;;;;;;;0.32;0.30;;;9.40;74.00;;;4.62;100.00;94234.22;4992870;28;20029;-50
2023/01/09 03:16:35;;;;;;;0.50;0.40;;;9.30;73.80;;;4.57;100.00;94253.44;5003134;28;20434;-56
2023/01/09 03:19:10;;;;;;;0.85;0.47;;;9.30;73.90;;;4.46;100.00;94265.03;4971216;28;20037;-51
2023/01/09 03:21:38;;;;;;;0.50;0.30;;;9.20;73.90;;;4.32;100.00;94269.97;4977150;28;20032;-51
2023/01/09 03:24:05;;;;;;;0.40;0.40;;;9.10;73.80;;;4.22;100.00;94279.69;4980244;28;20026;-50
2023/01/09 03:26:31;;;;;;;0.30;0.30;;;9.00;73.60;;;4.07;100.00;94293.56;5009948;28;20029;-51
2023/01/09 03:29:00;;;;;;;0.47;0.30;;;9.00;73.60;;;4.03;100.00;94295.13;4953388;28;20354;-53
2023/01/09 03:31:26;;;;;;;1.65;0.30;;;8.90;73.70;;;4.07;100.00;94309.38;4976317;28;20040;-50
2023/01/09 03:33:52;;;;;;;0.85;0.50;;;8.80;73.70;;;4.12;100.00;94304.13;4991200;28;20108;-50
2023/01/09 03:36:23;;;;;;;2.25;0.40;;;8.80;74.00;;;4.13;100.00;94303.09;4999061;28;20113;-51
2023/01/09 03:38:51;;;;;;;1.95;0.30;;;8.70;74.00;;;4.12;100.00;94306.78;4952090;28;20026;-54
2023/01/09 03:41:18;;;;;;;0.35;0.35;;;8.70;74.10;;;4.15;100.00;94327.34;4971086;28;20033;-56
2023/01/09 03:43:47;;;;;;;0.82;0.30;;;8.70;74.20;;;4.13;100.00;94334.72;5004375;28;20108;-54
2023/01/09 03:46:15;;;;;;;0.40;0.40;;;8.70;74.30;;;4.07;100.00;94341.78;4995473;28;20030;-55
2023/01/09 03:48:44;;;;;;;2.05;0.40;;;8.70;74.30;;;4.03;100.00;94348.63;4980845;28;20124;-52
2023/01/09 03:51:13;;;;;;;1.23;0.82;;;8.70;74.40;;;3.97;100.00;94367.28;4970581;28;20029;-52
2023/01/09 03:53:44;;;;;;;2.55;1.35;;;8.70;74.40;;;3.89;100.00;94356.16;4981646;28;20034;-53
2023/01/09 03:56:13;;;;;;;1.55;1.02;;;8.60;74.30;;;3.92;100.00;94342.50;5010899;28;20143;-53
2023/01/09 03:58:38;;;;;;;1.52;0.47;;;8.60;74.40;;;3.89;100.00;94356.16;5002662;28;20029;-55
2023/01/09 04:01:11;;;;;;;1.40;0.55;;;8.50;74.40;;;3.92;100.00;94374.09;4975679;28;20028;-53
2023/01/09 04:03:38;;;;;;;0.40;0.40;;;8.60;74.50;;;3.93;100.00;94380.97;4971207;28;20089;-54
2023/01/09 04:06:05;;;;;;;0.55;0.45;;;8.50;74.50;;;3.94;100.00;94368.56;4980482;28;20026;-53
2023/01/09 04:08:31;;;;;;;0.43;0.40;;;8.50;74.60;;;3.88;100.00;94394.06;4969926;28;20373;-50
2023/01/09 04:11:00;;;;;;;0.73;0.50;;;8.50;74.60;;;3.89;100.00;94413.34;4958510;28;20038;-55
2023/01/09 04:13:26;;;;;;;3.85;0.50;;;8.50;74.60;;;3.88;100.00;94425.69;4983795;28;20037;-50
2023/01/09 04:15:52;;;;;;;4.35;0.50;;;8.50;74.60;;;3.94;100.00;94429.16;4978705;28;20026;-56
2023/01/09 04:18:27;;;;;;;0.38;0.35;;;8.50;74.70;;;3.91;100.00;94443.63;4969048;28;20042;-49
2023/01/09 04:20:52;;;;;;;0.30;0.30;;;8.50;74.80;;;3.92;100.00;94445.25;4949367;28;20049;-49
2023/01/09 04:23:18;;;;;;;0.30;0.30;;;8.50;74.70;;;3.88;100.00;94444.13;4976857;28;20065;-50
2023/01/09 04:25:47;;;;;;;1.77;0.60;;;8.50;74.70;;;3.83;100.00;94438.84;4973146;28;20021;-49
2023/01/09 04:28:25;;;;;;;0.30;0.30;;;8.50;74.70;;;3.75;100.00;94439.28;4989765;28;20022;-51
2023/01/09 04:30:54;;;;;;;0.85;0.45;;;8.40;74.60;;;3.73;100.00;94454.56;4953754;28;20057;-55
2023/01/09 04:33:19;;;;;;;0.70;0.40;;;8.40;75.40;;;3.67;100.00;94461.59;4959811;28;20033;-51
2023/01/09 04:35:48;;;;;;;1.60;0.43;;;8.40;74.60;;;3.63;100.00;94470.25;4969657;28;20480;-52
2023/01/09 04:38:17;;;;;;;0.20;0.20;;;8.40;74.70;;;3.54;100.00;94451.47;4987252;28;20053;-50
2023/01/09 04:40:47;;;;;;;1.40;0.30;;;8.30;74.60;;;3.46;100.00;94444.78;4983591;28;20036;-53
2023/01/09 04:43:16;;;;;;;0.40;0.20;;;8.20;74.40;;;3.45;100.00;94459.00;4991360;28;20033;-53
2023/01/09 04:45:54;;;;;;;0.70;0.38;;;8.20;74.40;;;3.40;100.00;94443.16;4962977;28;20075;-52
2023/01/09 04:48:22;;;;;;;0.38;0.38;;;8.10;74.40;;;3.42;100.00;94471.88;4987738;28;20052;-56
2023/01/09 04:50:54;;;;;;;1.27;0.57;;;8.10;74.50;;;3.39;100.00;94480.25;4975586;28;20388;-57
2023/01/09 04:53:26;;;;;;;0.75;0.47;;;8.10;74.60;;;3.42;100.00;94488.47;4992108;28;20451;-50
2023/01/09 04:55:58;;;;;;;1.80;0.68;;;8.00;74.60;;;3.46;100.00;94494.81;5009078;28;20040;-52
2023/01/09 04:58:27;;;;;;;0.30;0.30;;;8.00;74.70;;;3.42;100.00;94501.63;4997224;28;20563;-52
2023/01/09 05:00:52;;;;;;;0.38;0.30;;;8.00;74.70;;;3.40;100.00;94501.06;4991985;28;20061;-57
2023/01/09 05:03:21;;;;;;;0.73;0.65;;;8.00;74.70;;;3.41;100.00;94502.66;4976896;28;20515;-56
2023/01/09 05:05:47;;;;;;;0.85;0.43;;;8.10;74.80;;;3.36;100.00;94522.88;4997062;28;20030;-52
2023/01/09 05:08:15;;;;;;;0.60;0.52;;;8.10;74.70;;;3.35;100.00;94526.53;4962097;28;20034;-55
2023/01/09 05:10:41;;;;;;;0.93;0.60;;;8.10;74.60;;;3.37;100.00;94513.94;4981890;28;20464;-53
2023/01/09 05:13:10;;;;;;;1.27;0.70;;;8.10;74.50;;;3.38;100.00;94510.25;4951786;28;20072;-53
2023/01/09 05:15:36;;;;;;;0.60;0.50;;;8.10;74.40;;;3.36;100.00;94504.44;4969160;28;20034;-55
2023/01/09 05:18:07;;;;;;;0.70;0.30;;;8.10;74.40;;;3.40;100.00;94500.28;4955373;28;20036;-54
2023/01/09 05:20:36;;;;;;;0.80;0.60;;;8.10;74.30;;;3.39;100.00;94511.84;4974791;28;20037;-56
2023/01/09 05:23:08;;;;;;;1.08;0.70;;;8.10;74.10;;;3.38;100.00;94516.31;4986787;28;20030;-53
2023/01/09 05:25:39;;;;;;;0.77;0.50;;;8.10;74.00;;;3.36;100.00;94526.28;4970024;28;20546;-53
2023/01/09 05:28:08;;;;;;;1.73;0.95;;;8.10;73.80;;;3.32;100.00;94524.38;4964143;28;20041;-52
2023/01/09 05:30:43;;;;;;;1.08;0.80;;;8.10;73.80;;;3.27;100.00;94529.59;4958687;28;20521;-55
2023/01/09 05:33:16;;;;;;;0.52;0.43;;;8.00;73.70;;;3.19;100.00;94536.84;4985633;28;20116;-52
2023/01/09 05:35:47;;;;;;;1.42;0.80;;;8.00;73.70;;;3.17;100.00;94532.91;4970628;28;20381;-52
2023/01/09 05:38:15;;;;;;;3.75;0.65;;;7.90;73.80;;;3.16;100.00;94547.09;4968161;28;20377;-56
2023/01/09 05:40:50;;;;;;;1.55;0.50;;;7.90;74.00;;;3.17;100.00;94527.63;4951463;28;20033;-52
2023/01/09 05:43:16;;;;;;;0.77;0.43;;;7.90;74.00;;;3.14;100.00;94533.38;4979601;28;20029;-52
2023/01/09 05:45:44;;;;;;;0.98;0.50;;;7.90;74.00;;;3.13;100.00;94529.94;4968200;28;20029;-50
2023/01/09 05:48:13;;;;;;;1.35;0.55;;;7.90;73.90;;;3.11;100.00;94524.13;4989447;28;20674;-54
2023/01/09 05:50:39;;;;;;;1.75;0.73;;;7.90;73.90;;;3.11;100.00;94526.78;4977113;28;20037;-52
2023/01/09 05:53:11;;;;;;;1.90;0.90;;;7.90;73.80;;;3.07;100.00;94525.69;4972486;28;20033;-54
2023/01/09 05:55:40;;;;;;;0.83;0.63;;;7.80;73.70;;;3.01;100.00;94537.97;4992152;28;20021;-51
2023/01/09 05:58:06;;;;;;;0.40;0.40;;;7.80;73.70;;;2.98;100.00;94553.44;4985571;28;20018;-55
2023/01/09 06:00:35;;;;;;;0.40;0.40;;;7.80;73.80;;;2.93;100.00;94543.63;4997211;28;20064;-51
2023/01/09 06:03:00;;;;;;;0.35;0.30;;;7.80;73.90;;;2.94;100.00;94555.72;4997160;28;20408;-52
2023/01/09 06:05:26;;;;;;;0.20;0.20;;;7.80;74.00;;;2.94;100.00;94565.47;4993193;28;20028;-54
2023/01/09 06:07:59;;;;;;;0.88;0.40;;;7.80;73.90;;;2.89;100.00;94566.19;5011613;28;20057;-55
2023/01/09 06:10:33;;;;;;;0.80;0.50;;;7.70;73.90;;;2.90;100.00;94559.88;4981689;28;20478;-55
2023/01/09 06:13:02;;;;;;;0.80;0.70;;;7.70;74.00;;;2.88;100.00;94548.78;4990027;28;20041;-57
2023/01/09 06:15:28;;;;;;;1.02;0.77;;;7.70;73.90;;;2.85;100.00;94554.56;4969438;28;20224;-56
2023/01/09 06:17:54;;;;;;;0.70;0.60;;;7.70;73.90;;;2.84;100.00;94562.69;4981159;28;20916;-59
2023/01/09 06:20:22;;;;;;;1.15;0.50;;;7.70;74.00;;;2.82;100.00;94565.56;4954598;28;20384;-56
2023/01/09 06:23:03;;;;;;;0.55;0.50;;;7.60;74.00;;;2.76;100.00;94567.31;4968175;28;20048;-59
2023/01/09 06:25:29;;;;;;;2.33;0.43;;;7.60;74.00;;;2.77;100.00;94565.47;4954944;28;20495;-57
2023/01/09 06:27:55;;;;;;;0.73;0.60;;;7.60;74.10;;;2.80;100.00;94574.72;4969943;28;20117;-57
2023/01/09 06:30:21;;;;;;;1.65;0.50;;;7.60;74.90;;;2.75;100.00;94562.28;4947050;28;20022;-55
2023/01/09 06:32:49;;;;;;;2.10;0.60;;;7.60;74.20;;;2.75;100.00;94560.44;4973064;28;20088;-56
2023/01/09 06:35:21;;;;;;;2.10;1.27;;;7.60;74.20;;;2.74;100.00;94571.22;4982101;28;20060;-53
2023/01/09 06:37:48;;;;;;;2.28;1.13;;;7.50;74.10;;;2.75;100.00;94570.19;4977584;28;20028;-52
2023/01/09 06:40:17;;;;;;;1.85;1.20;;;7.50;74.10;;;2.73;100.00;94562.53;5004660;28;20026;-55
2023/01/09 06:42:49;;;;;;;2.08;1.30;;;7.50;74.10;;;2.73;100.00;94564.38;4976562;28;20048;-55
2023/01/09 06:45:15;;;;;;;4.20;1.15;;;7.50;74.10;;;2.69;100.00;94563.25;4993542;28;20460;-52
2023/01/09 06:47:42;;;;;;;4.13;1.30;;;7.50;74.00;;;2.67;100.00;94565.34;4950588;28;20033;-55
2023/01/09 06:50:09;;;;;;;2.80;1.00;;;7.40;74.00;;;2.58;100.00;94561.50;4992879;28;20044;-55
2023/01/09 06:52:37;;;;;;;2.17;0.80;;;7.40;73.90;;;2.57;100.00;94560.72;4986041;28;20503;-57
2023/01/09 06:55:08;;;;;;;0.52;0.50;;;7.40;74.00;;;2.61;100.00;94567.09;4966113;28;20029;-56
2023/01/09 06:57:34;;;;;;;7.18;0.75;;;7.40;74.00;;;2.67;100.00;94565.34;4972294;28;20124;-54
2023/01/09 06:59:59;;;;;;;2.22;0.52;;;7.40;74.20;;;2.68;100.00;94561.66;4993868;28;20577;-53
2023/01/09 07:02:28;;;;;;;1.75;0.80;;;7.40;74.20;;;2.72;100.00;94554.88;4957436;28;20499;-55
2023/01/09 07:04:53;;;;;;;4.00;0.95;;;7.40;74.30;;;2.74;100.00;94550.97;4927329;28;23229;-52
2023/01/09 07:07:21;;;;;;;2.88;0.60;;;7.50;74.30;;;2.75;100.00;94536.78;4988597;28;20075;-58
2023/01/09 07:09:47;;;;;;;1.40;0.57;;;7.50;74.20;;;2.75;100.00;94536.78;4960979;28;20026;-56
2023/01/09 07:12:14;;;;;;;0.98;0.47;;;7.50;74.00;;;2.73;99.79;94536.25;4965332;28;20586;-55
2023/01/09 07:14:43;;;;;;;1.13;0.75;;;7.50;73.80;;;2.72;99.55;94537.25;4974339;28;20105;-55
2023/01/09 07:17:12;;;;;;;4.45;0.63;;;7.50;73.80;;;2.70;99.30;94533.31;4985143;28;20597;-57
2023/01/09 07:19:38;;;;;;;1.65;0.80;;;7.50;73.70;;;2.69;98.99;94523.81;4947041;28;20022;-59
2023/01/09 07:22:04;;;;;;;4.45;0.98;;;7.50;73.60;;;2.66;99.01;94519.81;4976182;28;20554;-54
2023/01/09 07:24:33;;;;;;;1.90;0.43;;;7.40;73.50;;;2.60;97.41;94517.34;4964659;28;20116;-58
2023/01/09 07:26:59;;;;;;;4.07;0.60;;;7.40;73.30;;;2.60;98.23;94514.72;4961210;28;20500;-58
2023/01/09 07:29:25;;;;;;;1.58;0.52;;;7.40;73.40;;;2.61;97.06;94514.50;4975343;28;20125;-56
2023/01/09 07:31:50;;;;;;;2.20;0.50;;;7.40;73.30;;;2.62;95.82;94512.66;4972140;28;20053;-55
2023/01/09 07:34:22;;;;;;;6.47;0.57;;;7.40;73.40;;;2.64;96.92;94508.75;4960734;28;20436;-59
2023/01/09 07:36:50;;;;;;;4.20;0.55;;;7.40;73.30;;;2.60;96.13;94515.53;4970703;28;20496;-58
2023/01/09 07:39:16;;;;;;;2.92;0.52;;;7.40;73.20;;;2.56;96.90;94511.78;4962345;28;20018;-53
2023/01/09 07:41:42;;;;;;;6.47;0.93;;;7.40;73.20;;;2.54;96.47;94514.66;4949056;28;20457;-58
2023/01/09 07:44:08;;;;;;;1.75;0.57;;;7.40;73.20;;;2.53;96.56;94504.38;4967246;28;20072;-55
2023/01/09 07:46:33;;;;;;;2.58;0.60;;;7.30;73.10;;;2.53;96.32;94507.00;4966672;28;20056;-58
2023/01/09 07:48:59;;;;;;;1.83;0.50;;;7.40;73.20;;;2.55;96.19;94516.25;4987942;28;20046;-58
2023/01/09 07:51:25;;;;;;;1.98;0.80;;;7.40;73.10;;;2.59;94.65;94518.41;4970831;28;20073;-53
2023/01/09 07:53:51;;;;;;;3.30;0.68;;;7.40;73.10;;;2.65;95.59;94520.84;4997871;28;20451;-52
2023/01/09 07:56:17;;;;;;;2.33;0.65;;;7.40;73.20;;;2.66;94.99;94524.28;4976175;28;20534;-59
2023/01/09 07:58:43;;;;;;;4.60;0.90;;;7.50;73.10;;;2.68;95.76;94533.53;5003736;28;20033;-58
2023/01/09 08:01:11;;;;;;;2.30;0.70;;;7.50;73.00;;;2.69;95.46;94537.75;4954048;28;20507;-58
2023/01/09 08:03:37;;;;;;;3.58;0.80;;;7.50;72.90;;;2.69;94.40;94535.09;4986759;28;20396;-57
2023/01/09 08:06:10;;;;;;;4.07;1.13;;;7.50;72.90;;;2.69;94.06;94542.22;4984000;28;20029;-58
2023/01/09 08:08:35;;;;;;;1.20;0.63;;;7.50;72.80;;;2.68;95.01;94538.78;4990627;28;20032;-59
2023/01/09 08:11:01;;;;;;;3.22;0.85;;;7.50;72.70;;;2.66;94.80;94530.34;4978149;28;20029;-54
2023/01/09 08:13:27;;;;;;;2.25;0.70;;;7.50;72.60;;;2.65;94.55;94535.84;4964438;28;20553;-56
2023/01/09 08:15:53;;;;;;;2.72;0.98;;;7.50;72.60;;;2.67;95.29;94533.78;4958516;28;20030;-58
2023/01/09 08:18:19;;;;;;;3.13;1.50;;;7.50;72.40;;;2.62;94.62;94534.47;4947312;28;20064;-58
2023/01/09 08:20:48;;;;;;;3.20;1.05;;;7.50;72.40;;;2.63;94.98;94543.16;4940672;28;20030;-53
2023/01/09 08:23:16;;;;;;;4.40;1.02;;;7.60;72.40;;;2.62;94.63;94538.94;4953580;28;20030;-56
2023/01/09 08:25:42;;;;;;;1.65;0.90;;;7.50;72.30;;;2.62;95.39;94545.00;4970281;28;20076;-55
2023/01/09 08:28:08;;;;;;;3.25;1.48;;;7.50;72.30;;;2.63;95.15;94543.16;4965814;28;20034;-55
2023/01/09 08:30:40;;;;;;;6.18;1.50;;;7.50;72.20;;;2.62;95.51;94546.84;4983362;28;20026;-58
2023/01/09 08:33:09;;;;;;;3.08;1.75;;;7.50;72.10;;;2.60;94.65;94543.66;4958641;28;20034;-56
2023/01/09 08:35:45;;;;;;;2.03;0.70;;;7.50;72.10;;;2.62;94.62;94546.84;4940174;28;20033;-53
2023/01/09 08:38:14;;;;;;;3.20;0.82;;;7.50;72.10;;;2.58;94.12;94541.28;4969156;28;20025;-53
2023/01/09 08:40:39;;;;;;;2.65;0.50;;;7.40;71.90;;;2.56;93.86;94551.22;4984893;28;20022;-53
2023/01/09 08:49:07;;;;;;;4.30;0.57;;;7.40;71.90;;;2.45;94.12;94552.13;4970193;28;20029;-56
2023/01/09 08:51:33;;;;;;;0.90;0.50;;;7.40;72.10;;;2.51;95.54;94559.84;4974647;28;20040;-56
2023/01/09 08:53:59;;;;;;;1.63;0.57;;;7.40;72.30;;;2.55;92.92;94557.53;4978337;28;20116;-56
2023/01/09 08:56:27;;;;;;;1.73;0.70;;;7.50;72.40;;;2.66;93.48;94564.50;5009007;28;20139;-52
2023/01/09 08:58:56;;;;;;;5.03;0.80;;;7.50;72.50;;;2.75;92.88;94557.81;4980600;28;20034;-54
2023/01/09 09:01:22;;;;;;;2.85;0.82;;;7.60;72.60;;;2.84;92.70;94565.31;4951786;28;20089;-52
2023/01/09 09:03:48;;;;;;;2.78;0.80;;;7.70;72.60;;;2.90;91.31;94567.78;4982529;28;20037;-52
2023/01/09 09:06:19;;;;;;;2.67;1.02;;;7.70;72.50;;;2.98;90.92;94558.69;5002617;28;20036;-56
2023/01/09 09:08:45;;;;;;;2.45;0.50;;;7.80;72.40;;;3.07;90.98;94562.50;4991090;28;20025;-53
2023/01/09 09:11:14;;;;;;;1.30;0.70;;;7.90;72.40;;;3.10;88.14;94555.94;4950598;28;20042;-57
2023/01/09 09:13:46;;;;;;;1.83;0.50;;;8.00;72.30;;;3.21;88.52;94560.31;4950194;29;20473;-52
2023/01/09 09:16:12;;;;;;;0.88;0.43;;;8.10;72.20;;;3.27;87.55;94559.34;4959687;28;20454;-56
2023/01/09 09:18:37;;;;;;;2.72;0.60;;;8.10;72.10;;;3.33;86.57;94566.28;4958053;28;20030;-56
2023/01/09 09:21:03;;;;;;;1.80;0.70;;;8.20;72.10;;;3.40;86.03;94566.09;4972140;28;20029;-54
2023/01/09 09:23:29;;;;;;;1.27;0.60;;;8.20;71.90;;;3.44;86.94;94570.59;4964447;28;20019;-57
2023/01/09 09:26:01;;;;;;;1.75;0.80;;;8.30;71.80;;;3.48;84.71;94576.22;4968652;28;20551;-56
2023/01/09 09:28:27;;;;;;;1.98;0.50;;;8.40;71.70;;;3.53;84.28;94571.00;4963191;28;20037;-58
2023/01/09 09:31:08;;;;;;;2.40;0.75;;;8.40;71.40;;;3.62;84.71;94580.06;4955638;28;20397;-58
2023/01/09 09:33:34;;;;;;;1.88;0.95;;;8.50;71.30;;;3.68;85.54;94578.28;4956232;28;20383;-54
2023/01/09 09:36:03;;;;;;;1.85;0.63;;;8.60;71.30;;;3.69;84.06;94577.22;4948988;28;20019;-55
2023/01/09 09:38:29;;;;;;;1.10;0.80;;;8.70;71.10;;;3.78;83.59;94582.88;4952742;28;20036;-56
2023/01/09 09:45:01;;;;;;;3.78;0.82;;;8.90;70.70;;;3.94;82.35;94576.72;4938245;28;20033;-56
2023/01/09 09:48:13;;;;;;;2.10;1.15;;;9.00;70.40;;;3.99;82.66;94576.78;4952937;28;20428;-52
2023/01/09 09:51:22;;;;;;;2.72;1.05;;;9.10;70.40;;;4.04;81.63;94579.50;4969669;28;20034;-57
2023/01/09 09:54:33;;;;;;;1.48;0.70;;;9.20;70.20;;;4.10;79.69;94585.59;4954606;28;20039;-54
2023/01/09 09:57:05;;;;;;;1.63;0.50;;;9.30;70.10;;;4.20;79.28;94577.81;4963364;28;20030;-51
2023/01/09 09:59:37;;;;;;;1.63;0.75;;;9.40;70.00;;;4.30;80.37;94575.25;4939920;28;20037;-54
2023/01/09 10:02:09;;;;;;;2.30;0.70;;;9.50;69.60;;;4.43;79.24;94571.41;4951336;28;20030;-56
2023/01/09 10:04:50;;;;;;;2.47;0.60;;;9.60;69.50;;;4.54;77.99;94562.53;4960303;28;20034;-57
2023/01/09 10:07:40;;;;;;;3.40;0.70;;;9.80;69.10;;;4.72;78.81;94564.00;4951963;28;20029;-52
2023/01/09 10:10:29;;;;;;;1.17;0.70;;;10.10;69.00;;;4.89;79.10;94563.88;4952507;28;20030;-57
2023/01/09 10:14:03;;;;;;;3.20;0.85;;;10.20;68.90;;;4.94;76.88;94547.28;4965462;28;20045;-52
2023/01/09 10:16:15;;;;;;;1.38;0.70;;;10.40;68.40;;;5.20;78.70;94545.56;4960103;28;20034;-53
2023/01/09 10:19:05;;;;;;;3.08;1.15;;;10.60;68.20;;;5.32;77.19;94538.25;4953653;28;20046;-52
2023/01/09 10:22:19;;;;;;;1.55;0.80;;;10.90;68.00;;;5.43;77.02;94536.47;4958267;28;20046;-51
2023/01/09 10:25:18;;;;;;;1.73;0.90;;;11.00;67.50;;;5.42;77.20;94535.69;4966950;28;20027;-51
2023/01/09 10:28:06;;;;;;;1.70;0.80;;;11.00;67.40;;;5.60;77.38;94541.56;4952436;28;20494;-57
2023/01/09 10:31:31;;;;;;;6.97;0.90;;;11.20;67.20;;;5.57;75.58;94542.84;4951774;28;20054;-52
2023/01/09 10:35:01;;;;;;;1.70;0.73;;;11.30;66.60;;;5.74;76.38;94542.69;4958507;28;20610;-51
2023/01/09 10:38:00;;;;;;;3.17;0.60;;;11.50;66.50;;;5.58;75.24;94531.25;4970039;28;20034;-57
2023/01/09 10:40:58;;;;;;;5.10;1.08;;;11.60;65.50;;;5.58;73.21;94539.19;4965387;28;20058;-58
2023/01/09 10:43:48;;;;;;;2.92;0.70;;;11.70;64.80;;;5.66;74.37;94540.53;4971075;28;20029;-57
2023/01/09 10:46:55;;;;;;;1.88;0.90;;;11.70;64.30;;;5.72;74.45;94537.63;4971496;28;20137;-53
2023/01/09 10:49:23;;;;;;;2.45;0.80;;;11.70;63.90;;;5.76;74.42;94535.25;4951298;28;20027;-54
2023/01/09 10:52:24;;;;;;;1.42;0.60;;;11.70;63.60;;;5.88;72.63;94530.53;4961415;28;20468;-52
2023/01/09 10:55:18;;;;;;;3.55;0.60;;;11.80;63.70;;;5.84;72.12;94524.19;4947511;28;20022;-52
2023/01/09 10:58:03;;;;;;;4.20;0.75;;;11.90;63.30;;;5.92;73.52;94533.47;4959779;28;20018;-53
2023/01/09 11:00:33;;;;;;;4.53;0.70;;;12.00;63.20;;;6.02;73.05;94528.25;4962697;28;20496;-54
2023/01/09 11:03:02;;;;;;;1.17;0.55;;;12.00;63.10;;;5.98;71.97;94524.50;4947082;28;20113;-56
2023/01/09 11:05:29;;;;;;;1.45;0.70;;;12.00;63.10;;;6.01;74.17;94526.63;4975101;28;20045;-54
2023/01/09 11:08:40;;;;;;;2.60;0.85;;;11.90;62.80;;;6.14;74.31;94523.50;4963096;28;20118;-50
2023/01/09 11:11:35;;;;;;;3.58;0.73;;;11.90;62.90;;;6.09;73.21;94522.72;4946608;28;20042;-56